Time;durP1;ratioP1;P1;durP2;ratioP2;P2;SDS_P1;SDS_P2;PMS_P1;PMS_P2;Temp;Humidity;BMP_temperature;BMP_pressure;BME280_temperature;BME280_humidity;BME280_pressure;Samples;Min_cycle;Max_cycle;Signal;HPM_P1;HPM_P2
2023/05/22 00:02:31;;;;;;;33.72;18.33;;;;;;;;;;5068399;28;20062;-74
2023/05/22 00:05:04;;;;;;;24.92;16.88;;;;;;;;;;5067570;28;21180;-74
2023/05/22 00:07:36;;;;;;;31.85;20.23;;;;;;;;;;5066228;28;20053;-74
2023/05/22 00:10:08;;;;;;;31.60;18.08;;;;;;;;;;5067679;28;20053;-74
2023/05/22 00:12:40;;;;;;;32.10;18.90;;;;;;;;;;5068259;28;20048;-75
2023/05/22 00:15:12;;;;;;;26.25;16.33;;;;;;;;;;5068051;28;20040;-76
2023/05/22 00:17:46;;;;;;;31.85;18.65;;;;;;;;;;5066501;28;20056;-75
2023/05/22 00:20:20;;;;;;;28.15;18.63;;;;;;;;;;5067500;28;20049;-75
2023/05/22 00:22:53;;;;;;;34.35;18.25;;;;;;;;;;5067473;28;20044;-74
2023/05/22 00:25:25;;;;;;;24.80;16.40;;;;;;;;;;5065516;28;20778;-74
2023/05/22 00:27:57;;;;;;;27.60;17.15;;;;;;;;;;5067225;28;20048;-74
2023/05/22 00:30:29;;;;;;;25.75;16.67;;;;;;;;;;5067202;28;20061;-74
2023/05/22 00:33:02;;;;;;;31.83;17.88;;;;;;;;;;5054736;28;20048;-75
2023/05/22 00:35:37;;;;;;;21.45;15.77;;;;;;;;;;5067104;28;20043;-74
2023/05/22 00:38:09;;;;;;;22.75;16.15;;;;;;;;;;5066982;28;20047;-74
2023/05/22 00:40:42;;;;;;;26.13;16.52;;;;;;;;;;5066660;28;20044;-74
2023/05/22 00:43:18;;;;;;;23.10;16.95;;;;;;;;;;5056464;28;20044;-74
2023/05/22 00:45:51;;;;;;;23.02;16.33;;;;;;;;;;5056702;28;20059;-74
2023/05/22 00:48:24;;;;;;;25.00;16.15;;;;;;;;;;5065192;28;20040;-74
2023/05/22 00:50:58;;;;;;;25.55;16.23;;;;;;;;;;5057562;28;20045;-74
2023/05/22 00:53:32;;;;;;;20.67;15.65;;;;;;;;;;5057020;28;20052;-74
2023/05/22 00:56:05;;;;;;;26.42;16.52;;;;;;;;;;5064598;28;20045;-74
2023/05/22 00:58:37;;;;;;;25.02;16.25;;;;;;;;;;5066318;28;20621;-75
2023/05/22 01:01:11;;;;;;;21.73;15.43;;;;;;;;;;5066252;28;20048;-74
2023/05/22 01:03:45;;;;;;;20.40;14.15;;;;;;;;;;5063787;28;20059;-75
2023/05/22 01:06:20;;;;;;;29.38;13.52;;;;;;;;;;5064507;28;20060;-74
2023/05/22 01:08:52;;;;;;;20.52;13.43;;;;;;;;;;5059016;28;20052;-74
2023/05/22 01:11:47;;;;;;;23.30;14.25;;;;;;;;;;5055083;28;20067;-75
2023/05/22 01:14:37;;;;;;;20.83;13.98;;;;;;;;;;5063888;28;20040;-74
2023/05/22 01:17:39;;;;;;;24.63;14.88;;;;;;;;;;5057496;28;20411;-74
2023/05/22 01:20:29;;;;;;;25.02;13.02;;;;;;;;;;5035791;28;20407;-74
2023/05/22 01:23:07;;;;;;;22.55;15.15;;;;;;;;;;5056430;28;20051;-74
2023/05/22 01:26:19;;;;;;;24.67;14.25;;;;;;;;;;5066848;28;20048;-74
2023/05/22 01:29:12;;;;;;;23.75;15.30;;;;;;;;;;5066611;28;20939;-74
2023/05/22 01:31:45;;;;;;;20.48;14.23;;;;;;;;;;5064061;28;20041;-74
2023/05/22 01:34:17;;;;;;;23.42;14.07;;;;;;;;;;5065559;28;20044;-74
2023/05/22 01:36:50;;;;;;;24.33;13.02;;;;;;;;;;5065999;28;20082;-74
2023/05/22 01:39:24;;;;;;;29.58;16.70;;;;;;;;;;5062571;28;20040;-74
2023/05/22 01:41:55;;;;;;;23.48;15.27;;;;;;;;;;5064867;28;20047;-75
2023/05/22 01:44:26;;;;;;;25.38;14.43;;;;;;;;;;5065562;28;20041;-74
2023/05/22 01:47:03;;;;;;;23.35;14.57;;;;;;;;;;5063128;28;20052;-74
2023/05/22 01:49:35;;;;;;;25.15;15.15;;;;;;;;;;5046941;28;20049;-75
2023/05/22 01:52:14;;;;;;;24.60;15.20;;;;;;;;;;5045017;28;20057;-74
2023/05/22 01:55:12;;;;;;;22.45;13.57;;;;;;;;;;5045176;28;20048;-74
2023/05/22 01:57:56;;;;;;;26.55;14.63;;;;;;;;;;5044273;28;20060;-76
2023/05/22 02:00:28;;;;;;;23.33;15.48;;;;;;;;;;5044815;28;20064;-74
2023/05/22 02:03:07;;;;;;;27.30;14.43;;;;;;;;;;5044352;28;20053;-74
2023/05/22 02:05:40;;;;;;;20.60;14.00;;;;;;;;;;5044365;28;20057;-74
2023/05/22 02:08:13;;;;;;;20.88;12.23;;;;;;;;;;5046025;28;20049;-74
2023/05/22 02:10:45;;;;;;;22.98;12.32;;;;;;;;;;5043763;28;20062;-74
2023/05/22 02:13:16;;;;;;;17.88;12.18;;;;;;;;;;5044505;28;20044;-74
2023/05/22 02:15:48;;;;;;;23.02;12.55;;;;;;;;;;5045211;28;20056;-74
2023/05/22 02:18:18;;;;;;;20.80;13.50;;;;;;;;;;5045404;28;20040;-74
2023/05/22 02:20:50;;;;;;;18.98;13.18;;;;;;;;;;5044208;28;20049;-74
2023/05/22 02:23:20;;;;;;;19.10;13.80;;;;;;;;;;5044468;28;20048;-74
2023/05/22 02:25:50;;;;;;;21.55;14.23;;;;;;;;;;5045715;28;20053;-74
2023/05/22 02:28:22;;;;;;;20.27;13.70;;;;;;;;;;5045460;28;20048;-74
2023/05/22 02:30:52;;;;;;;20.00;14.23;;;;;;;;;;5046016;28;20045;-74
2023/05/22 02:33:22;;;;;;;20.08;13.85;;;;;;;;;;5045750;28;20048;-74
2023/05/22 02:35:54;;;;;;;20.70;14.60;;;;;;;;;;5044004;28;20064;-74
2023/05/22 02:38:24;;;;;;;22.52;12.18;;;;;;;;;;5044805;28;20643;-74
2023/05/22 02:40:56;;;;;;;17.77;12.35;;;;;;;;;;5044246;28;20052;-74
2023/05/22 02:43:27;;;;;;;18.88;12.38;;;;;;;;;;5044604;28;20547;-74
2023/05/22 02:45:57;;;;;;;20.92;13.63;;;;;;;;;;5044346;28;20439;-74
2023/05/22 02:48:29;;;;;;;20.42;13.90;;;;;;;;;;5050392;28;20056;-74
2023/05/22 02:50:59;;;;;;;18.33;13.93;;;;;;;;;;5047612;28;20515;-74
2023/05/22 02:53:32;;;;;;;24.08;14.30;;;;;;;;;;5046663;28;20064;-74
2023/05/22 02:56:03;;;;;;;16.05;11.02;;;;;;;;;;5047049;28;20045;-74
2023/05/22 02:58:33;;;;;;;18.10;13.05;;;;;;;;;;5047711;28;20389;-73
2023/05/22 03:01:09;;;;;;;18.35;12.48;;;;;;;;;;5045162;28;20049;-74
2023/05/22 03:03:39;;;;;;;20.80;12.35;;;;;;;;;;5044051;28;20060;-74
2023/05/22 03:06:09;;;;;;;19.58;13.25;;;;;;;;;;5043616;28;20059;-74
2023/05/22 03:08:42;;;;;;;18.05;12.73;;;;;;;;;;5043757;28;20056;-75
2023/05/22 03:11:13;;;;;;;21.67;14.40;;;;;;;;;;5044644;28;20044;-74
2023/05/22 03:13:44;;;;;;;24.80;14.63;;;;;;;;;;5045278;28;20049;-74
2023/05/22 03:16:20;;;;;;;24.80;15.70;;;;;;;;;;5043679;28;20052;-74
2023/05/22 03:18:52;;;;;;;22.15;15.77;;;;;;;;;;5026983;28;20045;-74
2023/05/22 03:21:23;;;;;;;21.35;15.70;;;;;;;;;;5043032;28;20056;-77
2023/05/22 03:23:54;;;;;;;23.60;16.33;;;;;;;;;;5046427;28;20053;-74
2023/05/22 03:26:27;;;;;;;19.83;15.35;;;;;;;;;;5048441;28;20064;-74
2023/05/22 03:28:58;;;;;;;19.83;13.63;;;;;;;;;;5046616;28;20061;-74
2023/05/22 03:31:32;;;;;;;23.73;15.65;;;;;;;;;;5046463;28;20049;-74
2023/05/22 03:34:07;;;;;;;19.77;14.07;;;;;;;;;;5046268;28;20076;-74
2023/05/22 03:36:40;;;;;;;24.80;14.35;;;;;;;;;;5046210;28;20049;-74
2023/05/22 03:39:10;;;;;;;21.20;14.10;;;;;;;;;;5045525;28;20049;-74
2023/05/22 03:41:49;;;;;;;21.90;15.90;;;;;;;;;;5046078;28;20053;-74
2023/05/22 03:44:20;;;;;;;22.60;14.68;;;;;;;;;;5045618;28;20049;-74
2023/05/22 03:46:51;;;;;;;24.90;15.02;;;;;;;;;;5046576;28;20057;-74
2023/05/22 03:49:22;;;;;;;23.58;12.65;;;;;;;;;;5046159;28;20072;-74
2023/05/22 03:51:52;;;;;;;21.60;14.15;;;;;;;;;;5046068;28;20060;-74
2023/05/22 03:54:23;;;;;;;19.90;14.93;;;;;;;;;;5046657;28;20056;-74
2023/05/22 03:56:53;;;;;;;18.48;13.90;;;;;;;;;;5045914;28;20053;-75
2023/05/22 03:59:25;;;;;;;19.25;13.80;;;;;;;;;;5046818;28;20512;-74
2023/05/22 04:01:57;;;;;;;16.77;12.18;;;;;;;;;;5045932;28;20057;-74
2023/05/22 04:04:27;;;;;;;19.30;11.25;;;;;;;;;;5046041;28;20056;-74
2023/05/22 04:06:58;;;;;;;18.95;12.57;;;;;;;;;;5047047;28;20041;-74
2023/05/22 04:09:31;;;;;;;23.55;13.15;;;;;;;;;;5047092;28;20056;-74
2023/05/22 04:12:03;;;;;;;18.35;12.18;;;;;;;;;;5046797;28;20044;-74
2023/05/22 04:14:33;;;;;;;16.80;12.35;;;;;;;;;;5047327;28;20057;-74
2023/05/22 04:17:04;;;;;;;23.00;11.32;;;;;;;;;;5046857;28;20638;-74
2023/05/22 04:19:35;;;;;;;18.05;11.75;;;;;;;;;;5046548;28;20036;-74
2023/05/22 04:22:05;;;;;;;22.55;11.73;;;;;;;;;;5045442;28;20059;-74
2023/05/22 04:24:38;;;;;;;17.60;11.32;;;;;;;;;;5047004;28;20410;-74
2023/05/22 04:27:08;;;;;;;13.48;9.95;;;;;;;;;;5046995;28;20049;-74
2023/05/22 04:29:41;;;;;;;15.63;11.02;;;;;;;;;;4966167;28;2279278;-74
2023/05/22 04:32:16;;;;;;;15.95;10.93;;;;;;;;;;5047723;28;20518;-74
2023/05/22 04:34:49;;;;;;;17.58;11.43;;;;;;;;;;5045786;28;20049;-74
2023/05/22 04:37:20;;;;;;;18.23;11.90;;;;;;;;;;5046475;28;20431;-74
2023/05/22 04:39:52;;;;;;;17.85;12.63;;;;;;;;;;5046604;28;20068;-74
2023/05/22 04:42:24;;;;;;;16.17;11.10;;;;;;;;;;5046428;28;20052;-74
2023/05/22 04:44:56;;;;;;;16.23;10.98;;;;;;;;;;5045820;28;20049;-74
2023/05/22 04:47:30;;;;;;;17.30;12.40;;;;;;;;;;5047253;28;20067;-74
2023/05/22 04:50:06;;;;;;;17.27;11.70;;;;;;;;;;5046202;28;20393;-74
2023/05/22 04:52:37;;;;;;;17.48;10.77;;;;;;;;;;5047723;28;20056;-74
2023/05/22 04:55:08;;;;;;;13.10;9.57;;;;;;;;;;5045609;28;20049;-74
2023/05/22 04:57:40;;;;;;;13.40;8.45;;;;;;;;;;5045974;28;20048;-74
2023/05/22 05:00:13;;;;;;;13.07;7.55;;;;;;;;;;5047288;28;20412;-74
2023/05/22 05:02:45;;;;;;;14.90;8.02;;;;;;;;;;5045608;28;20799;-73
2023/05/22 05:05:17;;;;;;;11.27;7.53;;;;;;;;;;5047065;28;20052;-74
2023/05/22 05:07:48;;;;;;;11.60;6.78;;;;;;;;;;5045485;28;20053;-74
2023/05/22 05:10:20;;;;;;;12.02;7.63;;;;;;;;;;5045683;28;20057;-74
2023/05/22 05:12:50;;;;;;;13.93;8.55;;;;;;;;;;5045655;28;20057;-74
2023/05/22 05:15:22;;;;;;;14.43;9.20;;;;;;;;;;5045767;28;20049;-74
2023/05/22 05:17:52;;;;;;;16.30;9.30;;;;;;;;;;5045889;28;20660;-74
2023/05/22 05:20:23;;;;;;;15.07;9.63;;;;;;;;;;5045396;28;20049;-74
2023/05/22 05:22:55;;;;;;;18.00;10.25;;;;;;;;;;5045268;28;20058;-74
2023/05/22 05:25:25;;;;;;;16.25;9.75;;;;;;;;;;5046518;28;20045;-74
2023/05/22 05:27:56;;;;;;;13.65;9.23;;;;;;;;;;5045530;28;20053;-74
2023/05/22 05:30:29;;;;;;;11.68;8.98;;;;;;;;;;5046139;28;20535;-74
2023/05/22 05:33:09;;;;;;;12.55;8.43;;;;;;;;;;5045259;28;20053;-74
2023/05/22 05:35:56;;;;;;;11.35;8.45;;;;;;;;;;5044887;28;20053;-73
2023/05/22 05:38:28;;;;;;;10.10;7.88;;;;;;;;;;5045366;28;20528;-76
2023/05/22 05:41:00;;;;;;;12.27;8.35;;;;;;;;;;5044957;28;20064;-74
2023/05/22 05:43:31;;;;;;;13.63;8.18;;;;;;;;;;5045417;28;20049;-73
2023/05/22 05:46:05;;;;;;;18.98;8.00;;;;;;;;;;5044264;28;20424;-74
2023/05/22 05:48:36;;;;;;;12.82;9.30;;;;;;;;;;5045212;28;20053;-74
2023/05/22 05:51:08;;;;;;;12.35;8.73;;;;;;;;;;5045572;28;20057;-74
2023/05/22 05:53:42;;;;;;;14.75;8.73;;;;;;;;;;5044548;28;20060;-74
2023/05/22 05:56:14;;;;;;;13.55;9.07;;;;;;;;;;5044784;28;20060;-73
2023/05/22 05:58:45;;;;;;;17.08;9.30;;;;;;;;;;5044525;28;20059;-74
2023/05/22 06:01:34;;;;;;;11.52;8.88;;;;;;;;;;5044358;28;20056;-74
2023/05/22 06:04:07;;;;;;;13.20;9.57;;;;;;;;;;5044429;28;20053;-73
2023/05/22 06:06:38;;;;;;;13.13;8.75;;;;;;;;;;5045086;28;20052;-74
2023/05/22 06:09:11;;;;;;;14.48;9.35;;;;;;;;;;5048790;28;20057;-74
2023/05/22 06:12:00;;;;;;;14.55;8.25;;;;;;;;;;5047247;28;20048;-74
2023/05/22 06:14:32;;;;;;;15.70;8.93;;;;;;;;;;5044344;28;20408;-73
2023/05/22 06:17:02;;;;;;;12.70;9.20;;;;;;;;;;5044009;28;20059;-74
2023/05/22 06:19:33;;;;;;;15.30;9.23;;;;;;;;;;5044533;28;20056;-74
2023/05/22 06:22:04;;;;;;;12.07;8.90;;;;;;;;;;5044577;28;20057;-74
2023/05/22 06:24:38;;;;;;;12.73;9.88;;;;;;;;;;5044483;28;20587;-74
2023/05/22 06:27:13;;;;;;;;;;;;;;;;;;5044588;28;20404;-74
2023/05/22 06:29:43;;;;;;;15.90;10.10;;;;;;;;;;5043655;28;19925;-74
2023/05/22 06:32:14;;;;;;;14.93;10.40;;;;;;;;;;5044353;28;20049;-73
2023/05/22 06:34:48;;;;;;;25.25;10.55;;;;;;;;;;5028317;28;20076;-74
2023/05/22 06:37:20;;;;;;;16.75;10.52;;;;;;;;;;5044241;28;20053;-73
2023/05/22 06:39:50;;;;;;;13.75;9.98;;;;;;;;;;5045381;28;20053;-73
2023/05/22 06:42:47;;;;;;;15.48;10.02;;;;;;;;;;5043783;28;20064;-74
2023/05/22 06:45:41;;;;;;;18.67;11.20;;;;;;;;;;5044467;28;20064;-74
2023/05/22 06:48:23;;;;;;;15.93;11.68;;;;;;;;;;5049859;28;20074;-74
2023/05/22 06:51:05;;;;;;;15.32;10.60;;;;;;;;;;5043725;28;20052;-74
2023/05/22 06:53:36;;;;;;;14.23;10.13;;;;;;;;;;5044143;28;20516;-74
2023/05/22 06:56:13;;;;;;;17.90;11.27;;;;;;;;;;5043987;28;20049;-74
2023/05/22 06:58:54;;;;;;;16.23;10.30;;;;;;;;;;5044090;28;20056;-73
2023/05/22 07:01:34;;;;;;;19.88;10.25;;;;;;;;;;5043781;28;20427;-74
2023/05/22 07:04:12;;;;;;;14.05;10.90;;;;;;;;;;5043243;28;20068;-74
2023/05/22 07:07:03;;;;;;;16.67;10.27;;;;;;;;;;5043484;28;20416;-73
2023/05/22 07:09:34;;;;;;;14.27;9.25;;;;;;;;;;5043629;28;20053;-74
2023/05/22 07:12:06;;;;;;;12.45;8.40;;;;;;;;;;5043866;28;20669;-74
2023/05/22 07:14:37;;;;;;;15.70;8.63;;;;;;;;;;5043493;28;20415;-73
2023/05/22 07:17:08;;;;;;;11.50;8.20;;;;;;;;;;5044646;28;20045;-74
2023/05/22 07:19:42;;;;;;;12.35;7.80;;;;;;;;;;5043447;28;20060;-74
2023/05/22 07:22:14;;;;;;;9.82;7.18;;;;;;;;;;5043654;28;20056;-74
2023/05/22 07:24:46;;;;;;;9.15;6.57;;;;;;;;;;5043462;28;20053;-73
2023/05/22 07:27:18;;;;;;;9.32;6.18;;;;;;;;;;5043702;28;20540;-74
2023/05/22 07:29:49;;;;;;;14.15;6.20;;;;;;;;;;5043352;28;20053;-74
2023/05/22 07:32:21;;;;;;;10.43;5.82;;;;;;;;;;5043598;28;20060;-74
2023/05/22 07:34:53;;;;;;;6.93;5.60;;;;;;;;;;5043063;28;20146;-74
2023/05/22 07:37:24;;;;;;;9.70;6.65;;;;;;;;;;5042909;28;20053;-74
2023/05/22 07:39:56;;;;;;;14.27;7.38;;;;;;;;;;5044647;28;20049;-74
2023/05/22 07:42:26;;;;;;;14.90;7.55;;;;;;;;;;5044877;28;20516;-74
2023/05/22 07:44:57;;;;;;;10.40;6.38;;;;;;;;;;5043766;28;20393;-74
2023/05/22 07:47:29;;;;;;;8.93;6.50;;;;;;;;;;5043052;28;20068;-74
2023/05/22 07:50:03;;;;;;;12.15;6.57;;;;;;;;;;5043554;28;20045;-74
2023/05/22 07:52:36;;;;;;;12.38;6.18;;;;;;;;;;5042748;28;20064;-74
2023/05/22 07:55:08;;;;;;;8.77;6.28;;;;;;;;;;5043040;28;20045;-73
2023/05/22 07:57:42;;;;;;;14.35;6.95;;;;;;;;;;5043080;28;20049;-74
2023/05/22 08:00:20;;;;;;;14.85;9.35;;;;;;;;;;5043652;28;20061;-74
2023/05/22 08:02:50;;;;;;;16.25;8.43;;;;;;;;;;5044305;28;20044;-74
2023/05/22 08:05:22;;;;;;;14.75;8.93;;;;;;;;;;5044573;28;20049;-73
2023/05/22 08:07:53;;;;;;;14.63;8.05;;;;;;;;;;5044028;28;20052;-74
2023/05/22 08:10:23;;;;;;;15.57;9.43;;;;;;;;;;5047607;28;20049;-74
2023/05/22 08:12:57;;;;;;;14.43;8.20;;;;;;;;;;5048032;28;20548;-73
2023/05/22 08:15:27;;;;;;;15.23;8.77;;;;;;;;;;5047877;28;20044;-74
2023/05/22 08:17:58;;;;;;;11.57;7.90;;;;;;;;;;5048108;28;20049;-74
2023/05/22 08:20:28;;;;;;;14.40;7.40;;;;;;;;;;5047994;28;20049;-74
2023/05/22 08:22:59;;;;;;;15.95;7.97;;;;;;;;;;5048875;28;20049;-74
2023/05/22 08:25:30;;;;;;;10.23;7.10;;;;;;;;;;5046348;28;20057;-74
2023/05/22 08:28:01;;;;;;;13.88;7.30;;;;;;;;;;5047862;28;20045;-74
2023/05/22 08:30:30;;;;;;;16.38;7.72;;;;;;;;;;5047981;28;20061;-73
2023/05/22 08:33:01;;;;;;;15.73;8.65;;;;;;;;;;5047514;28;20048;-74
2023/05/22 08:35:32;;;;;;;12.50;7.95;;;;;;;;;;5047545;28;20511;-73
2023/05/22 08:38:02;;;;;;;9.77;7.32;;;;;;;;;;5047655;28;20507;-74
2023/05/22 08:40:37;;;;;;;12.45;7.72;;;;;;;;;;5047253;28;20055;-74
2023/05/22 08:43:08;;;;;;;11.35;7.97;;;;;;;;;;5047945;28;20049;-74
2023/05/22 08:45:42;;;;;;;10.38;6.53;;;;;;;;;;5047579;28;20496;-73
2023/05/22 08:48:15;;;;;;;9.55;7.47;;;;;;;;;;5047361;28;20053;-74
2023/05/22 08:50:48;;;;;;;12.18;7.63;;;;;;;;;;5047403;28;20056;-74
2023/05/22 08:53:22;;;;;;;13.55;7.78;;;;;;;;;;5046080;28;20053;-74
2023/05/22 08:55:53;;;;;;;12.82;8.02;;;;;;;;;;5047249;28;20045;-74
2023/05/22 08:58:25;;;;;;;11.60;6.82;;;;;;;;;;5047655;28;20052;-74
2023/05/22 09:00:56;;;;;;;13.50;7.38;;;;;;;;;;5047235;28;20049;-74
2023/05/22 09:03:31;;;;;;;10.82;6.30;;;;;;;;;;5046544;28;20403;-73
2023/05/22 09:06:03;;;;;;;11.60;6.10;;;;;;;;;;5046811;28;20067;-74
2023/05/22 09:08:33;;;;;;;9.98;6.07;;;;;;;;;;5046699;28;20052;-74
2023/05/22 09:11:03;;;;;;;12.18;7.20;;;;;;;;;;5047161;28;20052;-74
2023/05/22 09:13:34;;;;;;;11.85;6.90;;;;;;;;;;5046847;28;20044;-75
2023/05/22 09:16:12;;;;;;;10.73;7.45;;;;;;;;;;5029878;28;20056;-75
2023/05/22 09:18:44;;;;;;;9.85;6.35;;;;;;;;;;5046784;28;20048;-75
2023/05/22 09:21:14;;;;;;;10.93;6.43;;;;;;;;;;5045715;28;20041;-75
2023/05/22 09:24:00;;;;;;;12.90;6.30;;;;;;;;;;5046559;28;20052;-75
2023/05/22 09:26:32;;;;;;;8.45;6.20;;;;;;;;;;5046775;28;20045;-75
2023/05/22 09:29:03;;;;;;;10.68;6.40;;;;;;;;;;5046567;28;20064;-75
2023/05/22 09:31:44;;;;;;;8.98;6.18;;;;;;;;;;5046688;28;20041;-75
2023/05/22 09:34:16;;;;;;;11.25;6.57;;;;;;;;;;5045621;28;20056;-75
2023/05/22 09:36:48;;;;;;;8.13;6.03;;;;;;;;;;5046468;28;20072;-75
2023/05/22 09:39:20;;;;;;;10.50;5.20;;;;;;;;;;5045466;28;20057;-75
2023/05/22 09:41:50;;;;;;;8.13;5.00;;;;;;;;;;5046312;28;20053;-75
2023/05/22 09:44:25;;;;;;;7.32;4.82;;;;;;;;;;5046157;28;20059;-75
2023/05/22 09:46:56;;;;;;;7.57;5.25;;;;;;;;;;5046273;28;20064;-75
2023/05/22 09:49:27;;;;;;;8.60;5.10;;;;;;;;;;5046684;28;20052;-75
2023/05/22 09:51:58;;;;;;;12.77;5.43;;;;;;;;;;5046405;28;20044;-84
2023/05/22 09:54:32;;;;;;;15.50;5.47;;;;;;;;;;5045868;28;20053;-76
2023/05/22 09:57:08;;;;;;;9.13;5.30;;;;;;;;;;5045730;28;20049;-76
2023/05/22 09:59:39;;;;;;;;;;;;;;;;;;5046362;28;20056;-75
2023/05/22 10:02:09;;;;;;;9.60;6.07;;;;;;;;;;5046146;28;20391;-75
2023/05/22 10:04:41;;;;;;;15.23;6.10;;;;;;;;;;5045930;28;20060;-76
2023/05/22 10:07:14;;;;;;;17.40;6.60;;;;;;;;;;5046207;28;20527;-80
2023/05/22 10:09:50;;;;;;;12.95;7.25;;;;;;;;;;5045955;28;20060;-74
2023/05/22 10:12:22;;;;;;;14.40;9.98;;;;;;;;;;5046118;28;20052;-74
2023/05/22 10:14:54;;;;;;;13.45;7.68;;;;;;;;;;5044688;28;20049;-74
2023/05/22 10:17:25;;;;;;;13.30;8.75;;;;;;;;;;5046147;28;20049;-75
2023/05/22 10:19:58;;;;;;;15.18;9.10;;;;;;;;;;5045904;28;20507;-74
2023/05/22 10:22:29;;;;;;;17.38;8.90;;;;;;;;;;5045882;28;20053;-74
2023/05/22 10:25:01;;;;;;;13.13;8.10;;;;;;;;;;5044660;28;20056;-76
2023/05/22 10:27:33;;;;;;;14.15;9.32;;;;;;;;;;5044799;28;20060;-76
2023/05/22 10:30:22;;;;;;;17.35;11.00;;;;;;;;;;5045437;28;20084;-75
2023/05/22 10:33:31;;;;;;;19.73;9.85;;;;;;;;;;5025978;28;20061;-73
2023/05/22 10:36:06;;;;;;;12.07;9.55;;;;;;;;;;5046156;28;20049;-73
2023/05/22 10:38:53;;;;;;;14.55;9.80;;;;;;;;;;5046119;28;20056;-74
2023/05/22 10:41:26;;;;;;;18.00;9.73;;;;;;;;;;5045895;28;20488;-74
2023/05/22 10:43:57;;;;;;;14.52;9.80;;;;;;;;;;5045515;28;20045;-74
2023/05/22 10:46:33;;;;;;;13.23;9.25;;;;;;;;;;5045700;28;20049;-74
2023/05/22 10:49:04;;;;;;;20.70;9.45;;;;;;;;;;5045379;28;20049;-73
2023/05/22 10:51:35;;;;;;;13.60;10.05;;;;;;;;;;5044336;28;20416;-74
2023/05/22 10:54:06;;;;;;;11.20;8.48;;;;;;;;;;5047126;28;20594;-76
2023/05/22 10:56:37;;;;;;;23.05;11.48;;;;;;;;;;5046328;28;20584;-75
2023/05/22 10:59:08;;;;;;;17.92;10.07;;;;;;;;;;5045504;28;20049;-74
2023/05/22 11:01:39;;;;;;;14.65;10.13;;;;;;;;;;5044764;28;20044;-75
2023/05/22 11:04:18;;;;;;;20.08;10.35;;;;;;;;;;5043670;28;20420;-74
2023/05/22 11:07:07;;;;;;;18.95;10.63;;;;;;;;;;5042352;28;20055;-74
2023/05/22 11:09:46;;;;;;;14.93;9.77;;;;;;;;;;5044674;28;20056;-75
2023/05/22 11:12:29;;;;;;;14.90;9.73;;;;;;;;;;5045010;28;20052;-74
2023/05/22 11:15:10;;;;;;;13.25;9.40;;;;;;;;;;5041993;28;20048;-74
2023/05/22 11:17:43;;;;;;;16.63;9.73;;;;;;;;;;5043888;28;20500;-75
2023/05/22 11:20:21;;;;;;;21.33;10.30;;;;;;;;;;5044520;28;20045;-74
2023/05/22 11:23:04;;;;;;;14.00;10.27;;;;;;;;;;5043199;28;20079;-76
2023/05/22 11:25:39;;;;;;;17.60;8.32;;;;;;;;;;5044953;28;20045;-74
2023/05/22 11:28:11;;;;;;;15.00;9.40;;;;;;;;;;5045304;28;20052;-75
2023/05/22 11:30:42;;;;;;;14.90;8.35;;;;;;;;;;5044346;28;20061;-75
2023/05/22 11:33:15;;;;;;;10.75;8.48;;;;;;;;;;5026295;28;20059;-80
2023/05/22 11:35:50;;;;;;;14.50;9.02;;;;;;;;;;5044054;28;20527;-74
2023/05/22 11:38:21;;;;;;;12.27;8.73;;;;;;;;;;5044585;28;20512;-74
2023/05/22 11:40:52;;;;;;;11.73;8.05;;;;;;;;;;5044683;28;20499;-75
2023/05/22 11:43:34;;;;;;;13.57;7.38;;;;;;;;;;5045033;28;20500;-74
2023/05/22 11:46:09;;;;;;;16.35;8.27;;;;;;;;;;5048874;28;20056;-81
2023/05/22 11:48:42;;;;;;;17.70;8.38;;;;;;;;;;5048514;28;20052;-75
2023/05/22 11:51:13;;;;;;;13.68;9.00;;;;;;;;;;5048313;28;20059;-74
2023/05/22 11:53:44;;;;;;;12.75;8.82;;;;;;;;;;5048320;28;20436;-74
2023/05/22 11:56:14;;;;;;;11.02;8.48;;;;;;;;;;5048173;28;20045;-75
2023/05/22 11:58:44;;;;;;;12.15;8.80;;;;;;;;;;5048456;28;20049;-75
2023/05/22 12:01:15;;;;;;;13.38;9.07;;;;;;;;;;5048752;28;20045;-74
2023/05/22 12:03:47;;;;;;;14.02;9.25;;;;;;;;;;5048700;28;20392;-75
2023/05/22 12:06:18;;;;;;;13.23;8.52;;;;;;;;;;5048028;28;20499;-75
2023/05/22 12:08:49;;;;;;;18.10;11.15;;;;;;;;;;5048010;28;20041;-75
2023/05/22 12:11:22;;;;;;;16.17;8.82;;;;;;;;;;5048226;28;20045;-74
2023/05/22 12:14:00;;;;;;;18.75;11.60;;;;;;;;;;5047853;28;20053;-74
2023/05/22 12:16:35;;;;;;;13.68;9.68;;;;;;;;;;5048253;28;20041;-75
2023/05/22 12:19:10;;;;;;;12.15;9.23;;;;;;;;;;5047538;28;20044;-75
2023/05/22 12:21:43;;;;;;;13.48;8.30;;;;;;;;;;5048038;28;20052;-75
2023/05/22 12:24:20;;;;;;;12.75;8.55;;;;;;;;;;5048475;28;20794;-74
2023/05/22 12:26:54;;;;;;;13.00;8.73;;;;;;;;;;5046030;28;20055;-78
2023/05/22 12:29:26;;;;;;;13.27;8.55;;;;;;;;;;5047957;28;20061;-75
2023/05/22 12:32:04;;;;;;;14.45;8.70;;;;;;;;;;5047308;28;20045;-75
2023/05/22 12:34:41;;;;;;;15.95;11.90;;;;;;;;;;5047924;28;20040;-75
2023/05/22 12:37:26;;;;;;;16.00;7.30;;;;;;;;;;5047845;28;20048;-75
2023/05/22 12:40:00;;;;;;;9.77;7.72;;;;;;;;;;5047730;28;20045;-74
2023/05/22 12:42:31;;;;;;;11.43;8.70;;;;;;;;;;5047760;28;20051;-75
2023/05/22 12:45:02;;;;;;;10.90;8.82;;;;;;;;;;5045797;28;20049;-75
2023/05/22 12:47:32;;;;;;;12.95;7.95;;;;;;;;;;5047466;28;20048;-75
2023/05/22 12:50:03;;;;;;;12.95;8.98;;;;;;;;;;5047677;28;20045;-74
2023/05/22 12:52:35;;;;;;;13.77;8.35;;;;;;;;;;5047367;28;20051;-76
2023/05/22 12:55:06;;;;;;;13.68;8.07;;;;;;;;;;5046825;28;20045;-75
2023/05/22 12:57:36;;;;;;;16.73;8.77;;;;;;;;;;5046638;28;20045;-75
2023/05/22 13:00:07;;;;;;;15.05;7.45;;;;;;;;;;5046939;28;20405;-77
2023/05/22 13:02:37;;;;;;;15.27;7.57;;;;;;;;;;5047044;28;20036;-75
2023/05/22 13:05:07;;;;;;;12.18;8.20;;;;;;;;;;5046937;28;20045;-75
2023/05/22 13:07:39;;;;;;;12.43;8.38;;;;;;;;;;5045521;28;20056;-75
2023/05/22 13:10:09;;;;;;;13.65;9.52;;;;;;;;;;5047183;28;20401;-77
2023/05/22 13:12:40;;;;;;;8.98;6.55;;;;;;;;;;5046508;28;20774;-76
2023/05/22 13:15:12;;;;;;;13.95;7.78;;;;;;;;;;5046490;28;20496;-75
2023/05/22 13:17:43;;;;;;;11.82;7.95;;;;;;;;;;5046944;28;20056;-75
2023/05/22 13:20:14;;;;;;;19.88;8.18;;;;;;;;;;5046735;28;20037;-75
2023/05/22 13:22:45;;;;;;;11.70;6.63;;;;;;;;;;5047044;28;20524;-75
2023/05/22 13:25:17;;;;;;;12.60;7.55;;;;;;;;;;5046763;28;20052;-75
2023/05/22 13:27:49;;;;;;;13.32;6.60;;;;;;;;;;5046429;28;20049;-75
2023/05/22 13:30:19;;;;;;;9.45;7.10;;;;;;;;;;5046442;28;20072;-75
2023/05/22 13:32:50;;;;;;;14.95;7.45;;;;;;;;;;5044931;28;20052;-75
2023/05/22 13:35:21;;;;;;;12.80;7.32;;;;;;;;;;5046375;28;20048;-76
2023/05/22 13:37:53;;;;;;;10.77;6.55;;;;;;;;;;5046810;28;20045;-77
2023/05/22 13:40:24;;;;;;;8.88;5.90;;;;;;;;;;5046470;28;20099;-75
2023/05/22 13:42:54;;;;;;;10.65;6.40;;;;;;;;;;5046488;28;20068;-76
2023/05/22 13:45:26;;;;;;;10.32;6.70;;;;;;;;;;5046192;28;20511;-75
2023/05/22 13:47:57;;;;;;;8.93;6.55;;;;;;;;;;5046507;28;20045;-76
2023/05/22 13:50:26;;;;;;;8.50;5.53;;;;;;;;;;5045188;28;20053;-76
2023/05/22 13:52:57;;;;;;;9.48;6.10;;;;;;;;;;5046022;28;20052;-75
2023/05/22 13:55:28;;;;;;;9.10;7.15;;;;;;;;;;5046333;28;20056;-75
2023/05/22 13:57:59;;;;;;;8.30;5.78;;;;;;;;;;5045690;28;20040;-75
2023/05/22 14:00:29;;;;;;;19.45;11.93;;;;;;;;;;5046484;28;20053;-75
2023/05/22 14:02:59;;;;;;;11.02;6.30;;;;;;;;;;5046146;28;20048;-76
2023/05/22 14:05:31;;;;;;;9.20;5.63;;;;;;;;;;5044902;28;20044;-78
2023/05/22 14:08:04;;;;;;;8.15;5.50;;;;;;;;;;5045471;28;20052;-75
2023/05/22 14:10:34;;;;;;;9.45;5.50;;;;;;;;;;5046003;28;20044;-75
2023/05/22 14:13:04;;;;;;;8.13;5.25;;;;;;;;;;5046073;28;20056;-75
2023/05/22 14:15:35;;;;;;;7.40;5.22;;;;;;;;;;5045580;28;20045;-76
2023/05/22 14:18:06;;;;;;;5.70;4.78;;;;;;;;;;5046085;28;20056;-77
2023/05/22 14:20:36;;;;;;;8.07;4.75;;;;;;;;;;5045528;28;20055;-75
2023/05/22 14:23:06;;;;;;;7.38;4.75;;;;;;;;;;5045476;28;20053;-75
2023/05/22 14:25:36;;;;;;;8.93;4.80;;;;;;;;;;5045615;28;20427;-75
2023/05/22 14:28:12;;;;;;;9.02;5.55;;;;;;;;;;5045459;28;20060;-75
2023/05/22 14:30:43;;;;;;;7.57;5.00;;;;;;;;;;5045715;28;20049;-78
2023/05/22 14:33:15;;;;;;;7.32;5.10;;;;;;;;;;5045269;28;20037;-76
2023/05/22 14:35:45;;;;;;;7.20;4.78;;;;;;;;;;5045200;28;20041;-75
2023/05/22 14:38:16;;;;;;;10.00;6.65;;;;;;;;;;5045282;28;20401;-75
2023/05/22 14:40:47;;;;;;;13.05;9.93;;;;;;;;;;5044951;28;20048;-76
2023/05/22 14:43:17;;;;;;;13.55;7.43;;;;;;;;;;5044843;28;20041;-75
2023/05/22 14:45:48;;;;;;;8.00;5.10;;;;;;;;;;5045708;28;20408;-75
2023/05/22 14:48:24;;;;;;;7.10;5.82;;;;;;;;;;5045026;28;20052;-77
2023/05/22 14:50:56;;;;;;;7.78;5.25;;;;;;;;;;5045173;28;20049;-75
2023/05/22 14:53:27;;;;;;;10.18;6.55;;;;;;;;;;5045496;28;20045;-78
2023/05/22 14:55:57;;;;;;;11.60;6.45;;;;;;;;;;5044815;28;20041;-75
2023/05/22 14:58:28;;;;;;;9.80;7.22;;;;;;;;;;5044858;28;20056;-75
2023/05/22 15:00:59;;;;;;;18.77;11.45;;;;;;;;;;5045128;28;20052;-75
2023/05/22 15:03:30;;;;;;;15.15;8.55;;;;;;;;;;5044977;28;20045;-76